Time;durP1;ratioP1;P1;durP2;ratioP2;P2;SDS_P1;SDS_P2;PMS_P1;PMS_P2;Temp;Humidity;BMP_temperature;BMP_pressure;BME280_temperature;BME280_humidity;BME280_pressure;Samples;Min_cycle;Max_cycle;Signal;HPM_P1;HPM_P2
2023/08/09 08:47:44;;;;;;;18.25;13.43;;;;;;;15.42;100.00;101442.16;5075752;27;20824;-67
2023/08/09 08:50:11;;;;;;;15.73;11.90;;;;;;;15.47;100.00;101446.06;5067149;28;20028;-71
2023/08/09 08:52:40;;;;;;;16.65;11.68;;;;;;;15.47;100.00;101448.78;5079020;28;20028;-69
2023/08/09 08:55:07;;;;;;;12.30;11.00;;;;;;;15.51;100.00;101450.78;5089838;28;20066;-69
2023/08/09 08:57:34;;;;;;;12.68;10.88;;;;;;;15.52;100.00;101457.06;5071074;28;20053;-69
2023/08/09 09:00:01;;;;;;;13.30;11.02;;;;;;;15.56;100.00;101453.59;5084771;28;20028;-69
2023/08/09 09:02:26;;;;;;;11.85;10.52;;;;;;;15.60;100.00;101456.69;5055663;28;20045;-68
2023/08/09 09:04:52;;;;;;;12.07;9.88;;;;;;;15.72;100.00;101462.09;5049578;28;20099;-69
2023/08/09 09:07:17;;;;;;;10.98;9.57;;;;;;;15.74;100.00;101465.41;5048845;28;20120;-70
2023/08/09 09:09:55;;;;;;;14.23;10.20;;;;;;;15.84;100.00;101467.53;5050441;28;20026;-69
2023/08/09 09:12:20;;;;;;;10.27;9.23;;;;;;;15.86;100.00;101468.91;5033833;28;20030;-69
2023/08/09 09:14:51;;;;;;;11.48;9.88;;;;;;;15.94;100.00;101470.41;5059121;28;20104;-69
2023/08/09 09:17:18;;;;;;;12.23;8.70;;;;;;;16.03;100.00;101468.13;5057726;28;20037;-67
2023/08/09 09:19:44;;;;;;;12.07;8.75;;;;;;;16.22;100.00;101466.81;5049509;28;20035;-66
2023/08/09 09:22:09;;;;;;;11.35;10.02;;;;;;;16.31;100.00;101459.03;5044016;28;20104;-66
2023/08/09 09:24:35;;;;;;;10.13;8.35;;;;;;;16.47;100.00;101471.88;5046836;28;20026;-66
2023/08/09 09:27:00;;;;;;;10.80;8.43;;;;;;;16.38;100.00;101478.81;5051221;28;20056;-67
2023/08/09 09:29:31;;;;;;;12.88;8.60;;;;;;;16.50;100.00;101472.44;5035041;28;20026;-66
2023/08/09 09:31:59;;;;;;;11.13;8.00;;;;;;;16.54;100.00;101484.53;5029332;28;20397;-68
2023/08/09 09:34:29;;;;;;;9.55;7.70;;;;;;;16.69;100.00;101486.66;5029244;28;20026;-69
2023/08/09 09:36:55;;;;;;;10.18;8.45;;;;;;;16.69;100.00;101487.47;5028921;28;20025;-68
2023/08/09 09:39:21;;;;;;;9.88;8.35;;;;;;;16.66;100.00;101493.44;5026812;28;20156;-65
2023/08/09 09:41:50;;;;;;;10.70;8.82;;;;;;;16.72;100.00;101481.50;5040117;28;20025;-66
2023/08/09 09:44:23;;;;;;;10.95;8.52;;;;;;;16.75;100.00;101480.19;5028974;28;20037;-66
2023/08/09 09:46:54;;;;;;;9.13;8.07;;;;;;;16.73;100.00;101487.84;5034860;28;20136;-65
2023/08/09 09:49:20;;;;;;;11.55;8.55;;;;;;;16.76;100.00;101471.75;5039270;28;20025;-67
2023/08/09 09:51:46;;;;;;;9.85;8.43;;;;;;;16.86;100.00;101470.22;5028997;28;20029;-66
2023/08/09 09:54:13;;;;;;;11.60;8.20;;;;;;;16.97;100.00;101466.59;5028737;28;20021;-66
2023/08/09 09:56:38;;;;;;;9.90;8.07;;;;;;;17.00;100.00;101461.44;5032442;28;20112;-67
2023/08/09 09:59:04;;;;;;;11.77;8.43;;;;;;;17.10;100.00;101465.38;4996002;28;20477;-66
2023/08/09 10:01:31;;;;;;;9.45;8.10;;;;;;;17.04;100.00;101469.97;5010596;28;20046;-67
2023/08/09 10:04:06;;;;;;;9.27;7.50;;;;;;;17.11;100.00;101469.78;5014210;28;20068;-68
2023/08/09 10:06:35;;;;;;;8.98;6.80;;;;;;;17.11;100.00;101467.88;5015517;28;20029;-71
2023/08/09 10:09:03;;;;;;;6.60;5.90;;;;;;;17.22;100.00;101473.47;5015364;28;20481;-67
2023/08/09 10:11:29;;;;;;;6.80;5.60;;;;;;;17.28;100.00;101469.72;5014384;28;20079;-69
2023/08/09 10:14:00;;;;;;;7.30;5.25;;;;;;;17.47;100.00;101464.75;5014554;28;20076;-69
2023/08/09 10:16:28;;;;;;;8.00;5.40;;;;;;;17.54;100.00;101471.69;5007753;28;20061;-69
2023/08/09 10:19:00;;;;;;;6.35;5.13;;;;;;;17.74;100.00;101467.50;5020909;28;20404;-71
2023/08/09 10:21:26;;;;;;;5.78;5.18;;;;;;;17.84;100.00;101464.03;5018312;28;20087;-70
2023/08/09 10:24:14;;;;;;;6.25;4.53;;;;;;;17.96;100.00;101469.38;5013547;28;20053;-67
2023/08/09 10:26:44;;;;;;;5.88;4.38;;;;;;;18.08;100.00;101471.97;5015053;28;20049;-70
2023/08/09 10:29:12;;;;;;;4.90;4.50;;;;;;;18.08;100.00;101471.97;5028533;28;20112;-69
2023/08/09 10:32:07;;;;;;;8.15;4.43;;;;;;;18.14;100.00;101488.16;5028833;28;20034;-70
2023/08/09 10:34:40;;;;;;;4.55;3.50;;;;;;;18.13;100.00;101491.16;5034176;28;20042;-70
2023/08/09 10:37:07;;;;;;;4.55;3.28;;;;;;;18.16;100.00;101488.75;5034591;28;20531;-69
2023/08/09 10:39:34;;;;;;;5.18;3.53;;;;;;;18.23;100.00;101489.34;5026494;28;20031;-69
2023/08/09 10:42:07;;;;;;;8.73;4.00;;;;;;;18.29;100.00;101492.94;5014706;28;20608;-69
2023/08/09 10:44:44;;;;;;;5.28;3.65;;;;;;;18.22;100.00;101498.66;5013628;28;20022;-67
2023/08/09 10:47:25;;;;;;;6.07;3.83;;;;;;;18.23;100.00;101494.00;5013724;28;20082;-67
2023/08/09 10:49:50;;;;;;;6.35;3.60;;;;;;;18.17;100.00;101500.53;5016066;28;20025;-68
2023/08/09 10:52:17;;;;;;;5.43;3.23;;;;;;;18.28;100.00;101496.78;5024161;28;20032;-68
2023/08/09 10:54:43;;;;;;;6.82;3.47;;;;;;;18.53;100.00;101500.81;5014673;28;20355;-69
2023/08/09 10:57:10;;;;;;;3.45;3.10;;;;;;;18.66;100.00;101496.78;5014389;28;20069;-69
2023/08/09 10:59:39;;;;;;;5.57;3.15;;;;;;;18.65;100.00;101500.63;5013427;28;20040;-68
2023/08/09 11:02:07;;;;;;;5.07;3.10;;;;;;;18.74;100.00;101502.59;5015116;28;20132;-68
2023/08/09 11:04:34;;;;;;;7.55;2.83;;;;;;;18.84;100.00;101504.59;5033241;28;20501;-69
2023/08/09 11:06:59;;;;;;;6.63;2.88;;;;;;;18.80;100.00;101497.16;5031555;28;20057;-69
2023/08/09 11:09:26;;;;;;;5.07;2.45;;;;;;;18.86;100.00;101499.69;5029012;28;20111;-69
2023/08/09 11:11:52;;;;;;;5.53;2.38;;;;;;;18.95;100.00;101491.81;5029807;28;20029;-68
2023/08/09 11:14:20;;;;;;;4.78;2.35;;;;;;;19.10;100.00;101486.38;5031348;28;20407;-69
2023/08/09 11:16:47;;;;;;;2.05;1.88;;;;;;;19.13;100.00;101491.34;5019428;28;20025;-68
2023/08/09 11:19:14;;;;;;;4.05;2.10;;;;;;;19.11;100.00;101492.69;5033774;28;20100;-69
2023/08/09 11:21:42;;;;;;;3.33;1.98;;;;;;;19.04;91.18;101503.91;5033914;28;20026;-68
2023/08/09 11:24:08;;;;;;;3.42;2.20;;;;;;;18.93;94.20;101496.72;5033600;28;20453;-69
2023/08/09 11:26:36;;;;;;;5.47;2.10;;;;;;;18.90;100.00;101497.25;5011598;28;20083;-67
2023/08/09 11:29:03;;;;;;;3.05;1.98;;;;;;;19.04;93.02;101495.69;5013792;28;20025;-67
2023/08/09 11:31:31;;;;;;;4.32;2.30;;;;;;;19.20;95.28;101495.75;5013938;28;20472;-69
2023/08/09 11:33:57;;;;;;;3.45;1.88;;;;;;;19.26;89.30;101500.16;5022693;28;20100;-68
2023/08/09 11:36:27;;;;;;;1.85;1.75;;;;;;;19.35;91.16;101500.50;5030191;28;20056;-68
2023/08/09 11:38:53;;;;;;;4.50;1.90;;;;;;;19.41;95.76;101496.66;5033608;28;20029;-68
2023/08/09 11:41:18;;;;;;;3.85;1.73;;;;;;;19.57;100.00;101495.63;5028557;28;20116;-68
2023/08/09 11:43:46;;;;;;;2.47;1.83;;;;;;;19.90;100.00;101493.53;5032261;28;20029;-67
2023/08/09 11:46:11;;;;;;;4.28;2.10;;;;;;;19.94;82.83;101505.66;5032950;28;20128;-70
2023/08/09 11:48:39;;;;;;;2.33;2.00;;;;;;;19.95;82.61;101499.03;5033466;28;20056;-68
2023/08/09 11:51:04;;;;;;;3.50;2.10;;;;;;;20.07;80.69;101506.22;5027597;28;20034;-68
2023/08/09 11:53:31;;;;;;;3.33;2.22;;;;;;;20.12;80.02;101506.19;5033326;28;20036;-70
2023/08/09 11:56:01;;;;;;;3.30;2.08;;;;;;;19.95;74.90;101510.03;5033086;28;20364;-67
2023/08/09 11:58:27;;;;;;;4.68;2.88;;;;;;;19.76;75.47;101508.84;5027647;28;20022;-67
2023/08/09 12:00:53;;;;;;;4.22;2.55;;;;;;;19.65;84.93;101516.25;5007008;28;20029;-70
2023/08/09 12:03:21;;;;;;;5.20;2.80;;;;;;;19.62;86.14;101525.00;4993663;28;20033;-68
2023/08/09 12:05:50;;;;;;;5.20;3.47;;;;;;;19.74;81.62;101522.84;4993727;28;20409;-69
2023/08/09 12:08:16;;;;;;;4.28;3.30;;;;;;;19.93;80.48;101520.47;4998296;28;20041;-67
2023/08/09 12:10:42;;;;;;;3.60;3.30;;;;;;;19.99;77.32;101519.38;5007983;28;20033;-67
2023/08/09 12:13:09;;;;;;;5.85;3.45;;;;;;;20.02;82.07;101520.75;5013521;28;20065;-69
2023/08/09 12:15:35;;;;;;;4.55;3.65;;;;;;;20.07;79.10;101520.75;5013254;28;20030;-69
2023/08/09 12:18:00;;;;;;;5.35;4.07;;;;;;;20.16;78.85;101519.13;5013477;28;20480;-67
2023/08/09 12:20:25;;;;;;;5.18;4.32;;;;;;;20.23;78.53;101532.59;5012667;28;20026;-70
2023/08/09 12:22:51;;;;;;;6.45;4.07;;;;;;;20.32;76.01;101532.84;5002904;28;20631;-70
2023/08/09 12:25:16;;;;;;;5.57;3.63;;;;;;;20.42;74.53;101521.06;5013485;28;20068;-69
2023/08/09 12:27:41;;;;;;;5.07;3.50;;;;;;;20.46;75.03;101525.72;5012933;28;20053;-68
2023/08/09 12:30:10;;;;;;;5.10;3.95;;;;;;;20.45;77.93;101532.31;5027980;28;20083;-68
2023/08/09 12:32:37;;;;;;;5.53;3.55;;;;;;;20.58;76.28;101530.09;5013330;28;20112;-68
2023/08/09 12:35:04;;;;;;;3.70;3.30;;;;;;;20.57;78.94;101534.78;5029921;28;20040;-71
2023/08/09 12:37:29;;;;;;;4.55;3.35;;;;;;;20.52;78.84;101534.81;5032433;28;20492;-69
2023/08/09 12:39:55;;;;;;;3.90;3.50;;;;;;;20.45;88.16;101531.50;5032674;28;20032;-68
2023/08/09 12:42:20;;;;;;;7.25;2.92;;;;;;;20.29;83.27;101538.91;5032486;28;20028;-69
2023/08/09 12:44:46;;;;;;;2.60;2.40;;;;;;;20.14;88.28;101542.47;4999325;28;20061;-68
2023/08/09 12:47:11;;;;;;;4.15;2.30;;;;;;;20.24;96.13;101542.47;4992620;28;20043;-70
2023/08/09 12:49:37;;;;;;;3.35;2.40;;;;;;;20.34;75.50;101539.75;4992982;28;20022;-68
2023/08/09 12:52:02;;;;;;;5.32;2.33;;;;;;;20.50;75.25;101546.06;4993258;28;20062;-68
2023/08/09 12:54:27;;;;;;;4.03;1.90;;;;;;;20.66;69.40;101546.91;5004757;28;20037;-70
2023/08/09 12:56:53;;;;;;;4.18;1.90;;;;;;;20.82;70.33;101547.72;5010778;28;20113;-68
2023/08/09 12:59:18;;;;;;;5.95;2.10;;;;;;;20.93;67.07;101553.22;5012585;28;20101;-68
2023/08/09 13:01:43;;;;;;;2.78;1.80;;;;;;;21.15;68.71;101550.13;5002846;28;20050;-69
2023/08/09 13:04:09;;;;;;;4.93;1.48;;;;;;;21.08;68.63;101549.63;5002379;28;20033;-70
2023/08/09 13:06:34;;;;;;;4.95;1.45;;;;;;;21.06;73.13;101558.13;5012603;28;20029;-70
2023/08/09 13:09:00;;;;;;;4.25;1.75;;;;;;;20.90;71.98;101557.34;5012355;28;20022;-69
2023/08/09 13:11:25;;;;;;;4.50;1.75;;;;;;;20.97;69.16;101557.88;5012398;28;20036;-70
2023/08/09 13:13:51;;;;;;;4.07;1.77;;;;;;;20.83;67.64;101563.13;5011129;28;20471;-69
2023/08/09 13:16:16;;;;;;;5.68;1.35;;;;;;;20.76;69.89;101568.09;5023398;28;20108;-70
2023/08/09 13:18:42;;;;;;;3.50;1.80;;;;;;;20.85;69.33;101563.69;5032290;28;20021;-70
2023/08/09 13:21:13;;;;;;;4.95;1.60;;;;;;;21.05;67.63;101567.50;5032089;28;20126;-70
2023/08/09 13:23:39;;;;;;;4.50;1.45;;;;;;;21.03;64.23;101558.69;5014151;28;20034;-72
2023/08/09 13:26:05;;;;;;;4.32;1.30;;;;;;;21.18;64.74;101555.91;5027547;28;20049;-68
2023/08/09 13:28:30;;;;;;;4.20;1.33;;;;;;;21.46;65.19;101555.53;5012294;28;20022;-67
2023/08/09 13:30:55;;;;;;;4.22;1.58;;;;;;;21.53;60.72;101567.09;5012204;28;20056;-66
2023/08/09 13:33:21;;;;;;;3.42;1.42;;;;;;;21.63;60.35;101569.00;5011796;28;20018;-67
2023/08/09 13:35:47;;;;;;;3.65;1.40;;;;;;;21.79;63.75;101570.56;5016038;28;20030;-68
2023/08/09 13:38:37;;;;;;;3.75;1.70;;;;;;;21.97;62.79;101580.13;5014812;28;20338;-67
2023/08/09 13:41:02;;;;;;;2.53;1.30;;;;;;;22.04;63.00;101574.28;5016321;28;20021;-69
2023/08/09 13:43:28;;;;;;;2.88;1.13;;;;;;;21.87;59.61;101580.97;5027267;28;20318;-67
2023/08/09 13:45:54;;;;;;;5.82;1.40;;;;;;;21.85;63.04;101566.69;5024898;28;20389;-70
2023/08/09 13:48:19;;;;;;;3.88;1.40;;;;;;;21.79;57.86;101584.34;5010241;28;20475;-69
2023/08/09 13:50:47;;;;;;;4.60;1.27;;;;;;;22.00;58.00;101570.47;5015784;28;20040;-68
2023/08/09 13:53:13;;;;;;;4.45;1.40;;;;;;;22.15;58.34;101580.53;5025733;28;20109;-69
2023/08/09 13:55:39;;;;;;;3.83;1.58;;;;;;;22.10;59.27;101575.91;5016413;28;20076;-69
2023/08/09 13:58:04;;;;;;;2.03;1.30;;;;;;;21.98;60.16;101576.22;5018114;28;20037;-70
2023/08/09 14:00:30;;;;;;;3.13;1.20;;;;;;;21.85;55.50;101579.63;5015306;28;20022;-70
2023/08/09 14:02:55;;;;;;;3.58;1.42;;;;;;;21.56;56.24;101572.06;5017997;28;20472;-69
2023/08/09 14:05:22;;;;;;;2.47;1.50;;;;;;;21.55;57.09;101573.97;5014255;28;20037;-69
2023/08/09 14:07:47;;;;;;;2.47;1.30;;;;;;;21.45;56.47;101576.72;5030968;28;20108;-69
2023/08/09 14:10:12;;;;;;;4.07;1.30;;;;;;;21.66;57.44;101588.53;5034802;28;20079;-68
2023/08/09 14:12:38;;;;;;;2.67;1.40;;;;;;;21.70;53.59;101584.09;5035279;28;20172;-67
2023/08/09 14:15:04;;;;;;;3.10;1.35;;;;;;;21.77;53.81;101589.31;5035285;28;20419;-66
2023/08/09 14:17:29;;;;;;;3.63;1.48;;;;;;;21.89;53.68;101587.06;5031360;28;20044;-68
2023/08/09 14:19:55;;;;;;;2.40;1.15;;;;;;;21.99;52.55;101591.66;5034864;28;20021;-68
2023/08/09 14:22:20;;;;;;;4.45;1.10;;;;;;;22.02;50.59;101588.34;5035146;28;20029;-68
2023/08/09 14:24:45;;;;;;;3.75;1.13;;;;;;;22.19;51.70;101600.94;5034968;28;20077;-68
2023/08/09 14:27:11;;;;;;;2.42;1.20;;;;;;;22.26;50.37;101598.69;5021502;28;20053;-67
2023/08/09 14:29:42;;;;;;;3.53;1.13;;;;;;;22.23;49.43;101602.81;5012324;28;20369;-68
2023/08/09 14:32:10;;;;;;;2.63;1.38;;;;;;;22.38;51.82;101601.13;4995651;28;20034;-69
2023/08/09 14:34:36;;;;;;;2.05;1.42;;;;;;;22.29;49.70;101598.91;5008869;28;20029;-72
2023/08/09 14:37:02;;;;;;;4.55;1.20;;;;;;;22.37;50.51;101597.53;5011655;28;20029;-72
2023/08/09 14:39:27;;;;;;;2.30;1.10;;;;;;;22.61;51.12;101605.06;5012474;28;20033;-69
2023/08/09 14:41:53;;;;;;;3.50;1.38;;;;;;;22.78;49.10;101610.16;5012256;28;20029;-69
2023/08/09 14:44:18;;;;;;;3.67;1.30;;;;;;;22.86;49.05;101608.72;5023353;28;20022;-69
2023/08/09 14:46:43;;;;;;;2.83;1.42;;;;;;;22.75;50.03;101624.53;5024626;28;20038;-68
2023/08/09 14:49:08;;;;;;;2.88;1.10;;;;;;;22.88;50.62;101620.31;5020934;28;20029;-69
2023/08/09 14:51:34;;;;;;;4.20;1.20;;;;;;;22.88;52.10;101634.09;5012558;28;20033;-69
2023/08/09 14:59:09;;;;;;;3.03;1.33;;;;;;;23.26;51.75;101620.50;4995784;23;20128;-85
2023/08/09 15:04:19;;;;;;;5.28;1.27;;;;;;;24.69;48.96;101623.34;4951964;28;20446;-80
2023/08/09 15:06:45;;;;;;;3.13;1.13;;;;;;;24.54;47.42;101629.91;4956702;29;20066;-80
2023/08/09 15:09:12;;;;;;;3.88;1.40;;;;;;;23.98;47.98;101639.03;4956812;29;20490;-83
2023/08/09 15:11:37;;;;;;;3.33;1.20;;;;;;;23.85;47.71;101635.88;4956302;29;20031;-83
2023/08/09 15:19:21;;;;;;;3.20;1.25;;;;;;;24.12;48.49;101650.19;5223023;23;20050;-70
2023/08/09 15:21:47;;;;;;;4.13;1.25;;;;;;;24.40;47.72;101667.78;4950811;29;20051;-68
2023/08/09 15:24:14;;;;;;;5.07;1.58;;;;;;;24.41;46.16;101661.94;4954893;28;20027;-71
2023/08/09 15:26:39;;;;;;;3.22;1.42;;;;;;;24.16;46.22;101667.84;4955482;29;20076;-70
2023/08/09 15:29:05;;;;;;;3.88;1.40;;;;;;;23.77;47.91;101663.31;4955331;29;20063;-69
2023/08/09 15:31:30;;;;;;;3.30;1.20;;;;;;;23.57;48.55;101662.44;4955551;29;20501;-69
2023/08/09 15:33:55;;;;;;;2.90;1.30;;;;;;;23.26;49.13;101672.97;4953964;29;20029;-69
2023/08/09 15:36:21;;;;;;;3.67;1.30;;;;;;;23.30;49.49;101665.78;4955522;29;20122;-69
2023/08/09 15:38:46;;;;;;;6.18;1.48;;;;;;;23.13;48.59;101664.25;4952988;29;20422;-69
2023/08/09 15:41:11;;;;;;;3.65;1.40;;;;;;;23.08;49.20;101657.94;4951170;28;20078;-69
2023/08/09 15:43:37;;;;;;;3.97;1.40;;;;;;;23.49;48.93;101661.16;4951537;28;20074;-69
2023/08/09 15:46:02;;;;;;;4.13;1.15;;;;;;;23.87;47.37;101663.22;4958012;28;20039;-70
2023/08/09 15:48:31;;;;;;;5.40;1.50;;;;;;;24.29;47.31;101669.03;4955251;29;20027;-70
2023/08/09 15:50:57;;;;;;;3.13;1.48;;;;;;;23.96;46.52;101671.66;4945654;28;20035;-71
2023/08/09 15:53:22;;;;;;;3.40;1.50;;;;;;;23.42;47.76;101663.44;4955098;29;20031;-71
2023/08/09 15:55:48;;;;;;;2.60;1.40;;;;;;;22.99;49.52;101674.28;4954583;28;20031;-71
2023/08/09 15:58:13;;;;;;;3.40;1.60;;;;;;;22.89;48.90;101663.31;4942891;29;20083;-72
2023/08/09 16:00:39;;;;;;;2.85;1.60;;;;;;;22.96;49.12;101669.34;4943366;28;20042;-69
2023/08/09 16:03:07;;;;;;;4.57;1.27;;;;;;;23.14;48.50;101660.41;4940087;28;20031;-71
